Terminal Aerodrome Forecast
Issued by NWS

Home | Current Version | Previous Version | Text Only | Print | Product List | Glossary On
Versions: 1 2 3 4 5 6 7 8 9 10 11 12 13
445
FTUS45 KRIW 051728
TAFJAC
TAF
KJAC 051728Z 0518/0618 19008KT P6SM VCSH SCT025 BKN040
     FM060900 19014KT P6SM VCSH OVC020
     FM061400 19012KT 6SM -SN BR SCT009 OVC020
      AMD LTD TO CLD VIS AND WIND=

USA.gov is the U.S. government's official web portal to all federal, state and local government web resources and services.